createdAt,value
2018-08-30T00:00:20.504Z,37.30
2018-08-30T00:01:26.011Z,37.90
2018-08-30T00:02:31.524Z,39.20
2018-08-30T00:03:37.038Z,39.90
2018-08-30T00:04:42.557Z,39.60
2018-08-30T00:05:48.073Z,35.50
2018-08-30T00:06:53.587Z,37.90
2018-08-30T00:07:59.102Z,37.10
2018-08-30T00:09:04.617Z,35.80
2018-08-30T00:10:10.131Z,36.70
2018-08-30T00:11:15.652Z,36.10
2018-08-30T00:12:21.162Z,34.10
2018-08-30T00:13:26.674Z,33.50
2018-08-30T00:14:32.191Z,32.90
2018-08-30T00:15:37.709Z,32.30
2018-08-30T00:16:43.219Z,30.80
2018-08-30T00:17:48.735Z,30.70
2018-08-30T00:18:54.251Z,31.00
2018-08-30T00:19:59.768Z,30.10
2018-08-30T00:21:05.286Z,28.80
2018-08-30T00:22:10.797Z,28.90
2018-08-30T00:23:16.313Z,30.20
2018-08-30T00:24:21.828Z,29.70
2018-08-30T00:25:27.344Z,28.50
2018-08-30T00:26:32.856Z,27.30
2018-08-30T00:27:38.375Z,29.70
2018-08-30T00:28:43.885Z,28.60
2018-08-30T00:29:49.403Z,31.50
2018-08-30T00:30:54.918Z,32.10
2018-08-30T00:32:00.431Z,31.40
2018-08-30T00:33:05.986Z,27.80
2018-08-30T00:34:11.459Z,26.80
2018-08-30T00:35:16.983Z,25.30
2018-08-30T00:36:22.493Z,26.30
2018-08-30T00:37:28.011Z,23.80
2018-08-30T00:38:33.523Z,19.90
2018-08-30T00:39:39.037Z,22.40
2018-08-30T00:40:46.268Z,23.20
2018-08-30T00:41:50.082Z,22.40
2018-08-30T00:42:55.584Z,21.20
2018-08-30T00:44:01.095Z,17.90
2018-08-30T00:45:06.617Z,15.30
2018-08-30T00:46:12.124Z,15.20
2018-08-30T00:47:17.641Z,16.40
2018-08-30T00:48:23.157Z,16.00
2018-08-30T00:49:28.671Z,15.00
2018-08-30T00:50:34.188Z,14.90
2018-08-30T00:51:39.707Z,14.70
2018-08-30T00:52:45.219Z,13.90
2018-08-30T00:53:50.730Z,12.70
2018-08-30T00:54:56.249Z,13.10
2018-08-30T00:56:01.760Z,13.20
2018-08-30T00:57:07.277Z,12.80
2018-08-30T00:58:12.792Z,13.50
2018-08-30T00:59:18.322Z,12.90
2018-08-30T01:00:23.826Z,11.90
2018-08-30T01:01:29.335Z,12.80
2018-08-30T01:02:34.850Z,12.20
2018-08-30T01:03:40.361Z,11.50
2018-08-30T01:04:45.879Z,10.80
2018-08-30T01:05:51.396Z,11.00
2018-08-30T01:06:56.914Z,10.20
2018-08-30T01:08:02.429Z,9.50
2018-08-30T01:09:07.940Z,9.20
2018-08-30T01:10:13.453Z,9.20
2018-08-30T01:11:18.982Z,8.40
2018-08-30T01:12:24.482Z,8.10
2018-08-30T01:13:29.999Z,8.60
2018-08-30T01:14:35.520Z,9.00
2018-08-30T01:15:41.030Z,8.90
2018-08-30T01:16:46.545Z,8.40
2018-08-30T01:17:52.062Z,8.80
2018-08-30T01:18:57.576Z,7.80
2018-08-30T01:20:03.086Z,7.80
2018-08-30T01:21:08.603Z,8.80
2018-08-30T01:22:14.124Z,9.10
2018-08-30T01:23:19.637Z,8.60
2018-08-30T01:24:25.158Z,9.30
2018-08-30T01:25:30.663Z,8.80
2018-08-30T01:26:36.183Z,9.20
2018-08-30T01:27:41.700Z,9.40
2018-08-30T01:28:47.207Z,9.90
2018-08-30T01:29:52.728Z,10.20
2018-08-30T01:30:58.241Z,10.00
2018-08-30T01:32:03.753Z,10.20
2018-08-30T01:33:09.271Z,10.90
2018-08-30T01:34:14.784Z,11.20
2018-08-30T01:35:20.292Z,12.20
2018-08-30T01:36:25.819Z,12.00
2018-08-30T01:37:31.331Z,12.00
2018-08-30T01:38:36.846Z,11.90
2018-08-30T01:39:42.367Z,12.00
2018-08-30T01:40:47.877Z,12.70
2018-08-30T01:41:53.389Z,13.20
2018-08-30T01:42:58.899Z,13.50
2018-08-30T01:44:04.416Z,13.90
2018-08-30T01:45:09.932Z,14.20
2018-08-30T01:46:15.445Z,15.40
2018-08-30T01:47:20.958Z,15.30
2018-08-30T01:48:26.470Z,16.30
2018-08-30T01:49:31.989Z,17.30
2018-08-30T01:50:37.507Z,16.70
2018-08-30T01:51:43.019Z,18.00
2018-08-30T01:52:48.531Z,18.80
2018-08-30T01:53:54.047Z,19.60
2018-08-30T01:54:59.562Z,20.90
2018-08-30T01:56:05.086Z,21.30
2018-08-30T01:57:10.591Z,20.50
2018-08-30T01:58:16.121Z,21.10
2018-08-30T01:59:21.626Z,22.00
2018-08-30T02:00:27.135Z,22.50
2018-08-30T02:01:32.654Z,22.40
2018-08-30T02:02:38.170Z,22.60
2018-08-30T02:03:43.682Z,23.30
2018-08-30T02:04:49.195Z,24.10
2018-08-30T02:05:54.708Z,24.20
2018-08-30T02:07:00.225Z,24.60
2018-08-30T02:08:05.737Z,24.80
2018-08-30T02:09:11.256Z,24.20
2018-08-30T02:10:16.777Z,26.10
2018-08-30T02:11:22.286Z,26.30
2018-08-30T02:12:27.802Z,26.20
2018-08-30T02:13:33.313Z,26.50
2018-08-30T02:14:38.831Z,26.40
2018-08-30T02:15:44.342Z,27.30
2018-08-30T02:16:49.858Z,26.40
2018-08-30T02:17:55.369Z,28.10
2018-08-30T02:19:00.888Z,27.50
2018-08-30T02:20:06.407Z,26.50
2018-08-30T02:21:11.924Z,26.50
2018-08-30T02:22:17.433Z,26.20
2018-08-30T02:23:22.953Z,27.40
2018-08-30T02:24:28.461Z,26.60
2018-08-30T02:25:33.973Z,27.60
2018-08-30T02:26:39.491Z,26.80
2018-08-30T02:27:45.008Z,27.60
2018-08-30T02:28:50.525Z,28.40
2018-08-30T02:29:56.040Z,28.30
2018-08-30T02:31:01.557Z,28.10
2018-08-30T02:32:07.068Z,27.70
2018-08-30T02:33:12.579Z,29.00
2018-08-30T02:34:18.094Z,27.80
2018-08-30T02:35:23.614Z,29.00
2018-08-30T02:36:29.128Z,28.90
2018-08-30T02:37:34.642Z,30.30
2018-08-30T02:38:40.154Z,29.70
2018-08-30T02:39:45.671Z,30.00
2018-08-30T02:40:51.188Z,29.20
2018-08-30T02:41:56.699Z,29.30
2018-08-30T02:43:02.213Z,30.30
2018-08-30T02:44:07.726Z,29.60
2018-08-30T02:45:13.248Z,29.50
2018-08-30T02:46:18.758Z,29.40
2018-08-30T02:47:24.273Z,30.10
2018-08-30T02:48:29.788Z,30.20
2018-08-30T02:49:35.301Z,31.00
2018-08-30T02:50:40.823Z,32.60
2018-08-30T02:51:46.339Z,31.90
2018-08-30T02:52:51.852Z,32.00
2018-08-30T02:53:57.372Z,31.90
2018-08-30T02:55:02.880Z,33.20
2018-08-30T02:56:08.398Z,32.80
2018-08-30T02:57:13.907Z,32.60
2018-08-30T02:58:19.421Z,35.80
2018-08-30T02:59:24.954Z,36.80
2018-08-30T03:00:30.450Z,35.30
2018-08-30T03:01:35.965Z,33.50
2018-08-30T03:02:41.481Z,35.30
2018-08-30T03:03:46.998Z,32.20
2018-08-30T03:04:52.511Z,31.80
2018-08-30T03:05:58.025Z,32.70
2018-08-30T03:07:03.543Z,33.70
2018-08-30T03:08:09.061Z,33.20
2018-08-30T03:09:14.601Z,33.60
2018-08-30T03:10:20.091Z,37.70
2018-08-30T03:11:25.604Z,34.30
2018-08-30T03:12:31.118Z,34.50
2018-08-30T03:13:36.630Z,33.40
2018-08-30T03:14:42.151Z,33.90
2018-08-30T03:15:47.662Z,34.60
2018-08-30T03:16:53.175Z,33.80
2018-08-30T03:17:58.693Z,34.50
2018-08-30T03:19:04.214Z,33.90
2018-08-30T03:20:09.720Z,32.70
2018-08-30T03:21:15.239Z,33.70
2018-08-30T03:22:20.753Z,32.90
2018-08-30T03:23:26.266Z,34.80
2018-08-30T03:24:31.781Z,33.10
2018-08-30T03:25:37.300Z,35.20
2018-08-30T03:26:42.809Z,33.50
2018-08-30T03:27:48.325Z,34.00
2018-08-30T03:28:53.840Z,31.50
2018-08-30T03:29:59.426Z,35.00
2018-08-30T03:31:05.036Z,30.80
2018-08-30T03:32:10.387Z,32.00
2018-08-30T03:33:15.900Z,32.20
2018-08-30T03:34:21.414Z,32.70
2018-08-30T03:35:26.929Z,31.00
2018-08-30T03:36:32.450Z,31.40
2018-08-30T03:37:37.960Z,33.20
2018-08-30T03:38:43.477Z,31.40
2018-08-30T03:39:48.989Z,32.60
2018-08-30T03:40:54.504Z,32.10
2018-08-30T03:42:00.020Z,32.10
2018-08-30T03:43:05.533Z,32.50
2018-08-30T03:44:11.056Z,32.60
2018-08-30T03:45:16.565Z,32.30
2018-08-30T03:46:22.076Z,33.50
2018-08-30T03:47:27.597Z,33.20
2018-08-30T03:48:33.115Z,32.00
2018-08-30T03:49:38.623Z,31.90
2018-08-30T03:50:44.144Z,31.40
2018-08-30T03:51:49.659Z,31.10
2018-08-30T03:52:55.171Z,33.20
2018-08-30T03:54:00.685Z,32.00
2018-08-30T03:55:06.202Z,34.70
2018-08-30T03:56:11.716Z,32.50
2018-08-30T03:57:17.228Z,34.80
2018-08-30T03:58:22.741Z,33.30
2018-08-30T03:59:28.264Z,33.70
2018-08-30T04:00:33.773Z,33.80
2018-08-30T04:01:39.333Z,36.50
2018-08-30T04:02:44.802Z,36.40
2018-08-30T04:03:50.324Z,35.00
2018-08-30T04:04:55.830Z,35.20
2018-08-30T04:06:01.350Z,35.90
2018-08-30T04:07:06.862Z,39.60
2018-08-30T04:08:12.384Z,36.70
2018-08-30T04:09:17.892Z,39.70
2018-08-30T04:10:23.415Z,41.70
2018-08-30T04:11:28.930Z,37.60
2018-08-30T04:12:34.438Z,42.50
2018-08-30T04:13:39.959Z,43.70
2018-08-30T04:14:45.475Z,43.70
2018-08-30T04:15:50.983Z,39.50
2018-08-30T04:16:56.498Z,38.80
2018-08-30T04:18:02.019Z,44.60
2018-08-30T04:19:07.535Z,43.90
2018-08-30T04:20:13.043Z,62.60
2018-08-30T04:21:18.563Z,43.40
2018-08-30T04:22:24.075Z,43.50
2018-08-30T04:23:29.585Z,43.40
2018-08-30T04:24:35.103Z,43.30
2018-08-30T04:25:40.621Z,42.70
2018-08-30T04:26:46.129Z,44.90
2018-08-30T04:27:51.648Z,44.40
2018-08-30T04:28:57.162Z,44.30
2018-08-30T04:30:02.678Z,42.10
2018-08-30T04:31:08.195Z,44.20
2018-08-30T04:32:13.715Z,45.90
2018-08-30T04:33:19.223Z,43.60
2018-08-30T04:34:24.737Z,43.80
2018-08-30T04:35:30.253Z,45.20
2018-08-30T04:36:35.764Z,44.40
2018-08-30T04:37:41.281Z,44.20
2018-08-30T04:38:46.787Z,41.60
2018-08-30T04:39:52.314Z,43.90
2018-08-30T04:40:57.839Z,50.00
2018-08-30T04:42:03.343Z,44.40
2018-08-30T04:43:08.866Z,48.20
2018-08-30T04:44:14.375Z,48.60
2018-08-30T04:45:19.887Z,45.80
2018-08-30T04:46:25.403Z,45.00
2018-08-30T04:47:30.913Z,51.30
2018-08-30T04:48:36.429Z,52.90
2018-08-30T04:49:41.946Z,46.60
2018-08-30T04:50:47.462Z,41.30
2018-08-30T04:51:52.975Z,42.10
2018-08-30T04:52:58.490Z,43.70
2018-08-30T04:54:04.008Z,48.40
2018-08-30T04:55:09.525Z,49.20
2018-08-30T04:56:15.039Z,48.00
2018-08-30T04:57:20.550Z,47.80
2018-08-30T04:58:26.070Z,42.30
2018-08-30T04:59:31.590Z,50.50
2018-08-30T05:00:37.096Z,43.90
2018-08-30T05:01:42.631Z,42.30
2018-08-30T05:02:48.127Z,46.70
2018-08-30T05:03:53.648Z,43.60
2018-08-30T05:04:59.156Z,46.30
2018-08-30T05:06:04.676Z,46.00
2018-08-30T05:07:10.185Z,42.30
2018-08-30T05:08:15.712Z,42.30
2018-08-30T05:09:21.214Z,42.10
2018-08-30T05:10:26.729Z,42.60
2018-08-30T05:11:32.252Z,43.50
2018-08-30T05:12:37.765Z,44.20
2018-08-30T05:13:43.277Z,45.10
2018-08-30T05:14:48.794Z,42.70
2018-08-30T05:15:54.310Z,42.20
2018-08-30T05:16:59.823Z,42.90
2018-08-30T05:18:05.341Z,46.80
2018-08-30T05:19:10.852Z,43.10
2018-08-30T05:20:16.367Z,43.10
2018-08-30T05:21:21.887Z,41.60
2018-08-30T05:22:27.401Z,41.90
2018-08-30T05:23:32.916Z,41.90
2018-08-30T05:24:38.437Z,40.60
2018-08-30T05:25:43.942Z,43.80
2018-08-30T05:26:49.468Z,45.60
2018-08-30T05:27:54.974Z,43.70
2018-08-30T05:29:00.486Z,41.60
2018-08-30T05:30:06.004Z,40.60
2018-08-30T05:31:11.525Z,41.30
2018-08-30T05:32:17.032Z,41.80
2018-08-30T05:33:22.564Z,41.40
2018-08-30T05:34:28.066Z,40.90
2018-08-30T05:35:33.640Z,46.20
2018-08-30T05:36:39.103Z,47.50
2018-08-30T05:37:44.611Z,42.40
2018-08-30T05:38:50.123Z,44.00
2018-08-30T05:39:55.640Z,42.50
2018-08-30T05:41:01.159Z,45.40
2018-08-30T05:42:06.683Z,41.00
2018-08-30T05:43:12.186Z,41.70
2018-08-30T05:44:17.704Z,40.60
2018-08-30T05:45:23.216Z,40.40
2018-08-30T05:46:28.734Z,40.40
2018-08-30T05:47:34.244Z,39.90
2018-08-30T05:48:39.762Z,37.40
2018-08-30T05:49:45.277Z,39.20
2018-08-30T05:50:50.789Z,39.30
2018-08-30T05:51:56.308Z,36.70
2018-08-30T05:53:01.821Z,36.70
2018-08-30T05:54:07.336Z,35.40
2018-08-30T05:55:12.853Z,36.10
2018-08-30T05:56:18.362Z,36.70
2018-08-30T05:57:23.878Z,36.80
2018-08-30T05:58:29.402Z,35.70
2018-08-30T05:59:34.908Z,34.90
2018-08-30T06:00:40.429Z,38.90
2018-08-30T06:01:45.957Z,36.80
2018-08-30T06:02:51.457Z,33.30
2018-08-30T06:03:56.968Z,33.90
2018-08-30T06:05:02.491Z,33.80
2018-08-30T06:06:08.001Z,35.00
2018-08-30T06:07:13.571Z,36.30
2018-08-30T06:08:19.089Z,34.10
2018-08-30T06:09:24.547Z,33.10
2018-08-30T06:10:30.069Z,32.80
2018-08-30T06:11:35.576Z,33.60
2018-08-30T06:12:41.091Z,33.50
2018-08-30T06:13:46.606Z,34.10
2018-08-30T06:14:52.131Z,32.20
2018-08-30T06:15:57.647Z,33.70
2018-08-30T06:17:03.158Z,29.30
2018-08-30T06:18:08.665Z,30.80
2018-08-30T06:19:14.183Z,31.10
2018-08-30T06:20:19.700Z,34.60
2018-08-30T06:21:25.214Z,31.40
2018-08-30T06:22:30.731Z,29.80
2018-08-30T06:23:36.239Z,30.70
2018-08-30T06:24:41.763Z,30.10
2018-08-30T06:25:47.273Z,29.20
2018-08-30T06:26:52.862Z,28.10
2018-08-30T06:27:58.302Z,32.10
2018-08-30T06:29:03.823Z,29.00
2018-08-30T06:30:09.334Z,28.10
2018-08-30T06:31:14.844Z,27.60
2018-08-30T06:32:20.365Z,28.40
2018-08-30T06:33:25.877Z,27.50
2018-08-30T06:34:31.392Z,29.10
2018-08-30T06:35:36.908Z,27.50
2018-08-30T06:36:42.418Z,30.40
2018-08-30T06:37:47.935Z,28.20
2018-08-30T06:38:53.453Z,26.90
2018-08-30T06:39:58.967Z,26.50
2018-08-30T06:41:04.487Z,25.60
2018-08-30T06:42:09.996Z,25.30
2018-08-30T06:43:15.513Z,24.10
2018-08-30T06:44:21.028Z,26.30
2018-08-30T06:45:26.569Z,26.60
2018-08-30T06:46:32.056Z,24.70
2018-08-30T06:47:37.570Z,25.50
2018-08-30T06:48:43.187Z,24.80
2018-08-30T06:49:48.602Z,25.50
2018-08-30T06:50:54.119Z,24.30
2018-08-30T06:51:59.633Z,26.00
2018-08-30T06:53:05.147Z,24.40
2018-08-30T06:54:10.662Z,25.10
2018-08-30T06:55:16.172Z,26.40
2018-08-30T06:56:21.731Z,26.70
2018-08-30T06:57:27.205Z,23.70
2018-08-30T06:58:32.769Z,22.60
2018-08-30T06:59:38.247Z,23.10
2018-08-30T07:00:43.752Z,24.50
2018-08-30T07:01:49.273Z,24.10
2018-08-30T07:02:54.787Z,25.10
2018-08-30T07:04:00.294Z,22.60
2018-08-30T07:05:05.810Z,24.10
2018-08-30T07:06:11.328Z,26.40
2018-08-30T07:07:16.837Z,23.90
2018-08-30T07:08:22.354Z,24.50
2018-08-30T07:09:27.870Z,23.70
2018-08-30T07:10:33.389Z,26.10
2018-08-30T07:11:38.900Z,22.80
2018-08-30T07:12:44.424Z,23.30
2018-08-30T07:13:49.929Z,21.50
2018-08-30T07:14:55.493Z,24.80
2018-08-30T07:16:00.962Z,23.30
2018-08-30T07:17:06.480Z,20.90
2018-08-30T07:18:11.988Z,23.00
2018-08-30T07:19:17.504Z,22.10
2018-08-30T07:20:23.024Z,22.10
2018-08-30T07:21:28.543Z,22.70
2018-08-30T07:22:34.056Z,23.60
2018-08-30T07:23:39.567Z,22.40
2018-08-30T07:24:45.080Z,24.90
2018-08-30T07:25:50.604Z,21.30
2018-08-30T07:26:56.111Z,20.50
2018-08-30T07:28:01.627Z,19.90
2018-08-30T07:29:07.143Z,21.10
2018-08-30T07:30:12.659Z,21.60
2018-08-30T07:31:18.175Z,19.40
2018-08-30T07:32:23.691Z,21.90
2018-08-30T07:33:29.204Z,19.10
2018-08-30T07:34:34.793Z,22.20
2018-08-30T07:35:40.231Z,19.60
2018-08-30T07:36:45.752Z,20.80
2018-08-30T07:37:51.272Z,18.80
2018-08-30T07:38:56.776Z,18.00
2018-08-30T07:40:02.306Z,20.30
2018-08-30T07:41:07.817Z,19.60
2018-08-30T07:42:13.321Z,19.00
2018-08-30T07:43:18.849Z,22.00
2018-08-30T07:44:24.487Z,17.10
2018-08-30T07:45:29.870Z,17.60
2018-08-30T07:46:35.453Z,21.20
2018-08-30T07:47:40.898Z,19.10
2018-08-30T07:48:46.415Z,17.90
2018-08-30T07:49:51.926Z,16.90
2018-08-30T07:50:57.490Z,16.90
2018-08-30T07:52:02.962Z,20.80
2018-08-30T07:53:08.481Z,16.70
2018-08-30T07:54:13.987Z,15.30
2018-08-30T07:55:19.504Z,22.00
2018-08-30T07:56:25.028Z,17.90
2018-08-30T07:57:30.564Z,16.30
2018-08-30T07:58:36.052Z,16.50
2018-08-30T07:59:41.561Z,18.20
2018-08-30T08:00:47.084Z,17.20
2018-08-30T08:01:52.591Z,15.20
2018-08-30T08:02:58.109Z,18.50
2018-08-30T08:04:03.623Z,15.10
2018-08-30T08:05:09.142Z,17.10
2018-08-30T08:06:14.659Z,18.80
2018-08-30T08:07:20.285Z,14.10
2018-08-30T08:08:25.688Z,14.20
2018-08-30T08:09:31.201Z,15.00
2018-08-30T08:10:36.720Z,15.90
2018-08-30T08:11:42.233Z,12.50
2018-08-30T08:12:47.774Z,15.50
2018-08-30T08:13:53.260Z,15.40
2018-08-30T08:14:58.784Z,14.00
2018-08-30T08:16:04.288Z,15.90
2018-08-30T08:17:09.805Z,16.50
2018-08-30T08:18:15.321Z,13.60
2018-08-30T08:19:20.834Z,13.70
2018-08-30T08:20:26.355Z,17.90
2018-08-30T08:21:31.874Z,15.90
2018-08-30T08:22:37.389Z,13.50
2018-08-30T08:23:42.895Z,13.00
2018-08-30T08:24:48.474Z,13.10
2018-08-30T08:25:53.934Z,12.20
2018-08-30T08:26:59.446Z,10.30
2018-08-30T08:28:04.971Z,13.90
2018-08-30T08:29:10.471Z,12.80
2018-08-30T08:30:15.998Z,13.80
2018-08-30T08:31:21.522Z,14.10
2018-08-30T08:32:27.017Z,14.40
2018-08-30T08:33:32.537Z,16.50
2018-08-30T08:34:38.051Z,14.70
2018-08-30T08:35:43.565Z,15.20
2018-08-30T08:36:49.084Z,13.30
2018-08-30T08:37:54.597Z,14.20
2018-08-30T08:39:00.114Z,12.70
2018-08-30T08:40:05.630Z,14.30
2018-08-30T08:41:11.142Z,14.70
2018-08-30T08:42:16.661Z,10.70
2018-08-30T08:43:22.175Z,13.00
2018-08-30T08:44:27.702Z,10.50
2018-08-30T08:45:33.217Z,11.70
2018-08-30T08:46:38.721Z,12.10
2018-08-30T08:47:44.245Z,13.80
2018-08-30T08:48:49.753Z,13.40
2018-08-30T08:49:55.272Z,12.40
2018-08-30T08:51:00.805Z,13.30
2018-08-30T08:52:06.297Z,12.70
2018-08-30T08:53:11.817Z,13.00
2018-08-30T08:54:17.332Z,10.90
2018-08-30T08:55:22.852Z,14.70
2018-08-30T08:56:28.369Z,12.90
2018-08-30T08:57:33.875Z,12.30
2018-08-30T08:58:39.448Z,10.70
2018-08-30T08:59:44.912Z,12.10
2018-08-30T09:00:50.426Z,11.00
2018-08-30T09:01:55.944Z,12.90
2018-08-30T09:03:01.460Z,13.50
2018-08-30T09:04:06.967Z,11.40
2018-08-30T09:05:12.491Z,12.30
2018-08-30T09:06:18.001Z,12.30
2018-08-30T09:07:23.548Z,10.00
2018-08-30T09:08:29.029Z,12.00
2018-08-30T09:09:34.547Z,12.50
2018-08-30T09:10:40.063Z,10.50
2018-08-30T09:11:45.578Z,11.00
2018-08-30T09:12:51.094Z,12.70
2018-08-30T09:13:56.618Z,14.20
2018-08-30T09:15:02.128Z,10.50
2018-08-30T09:16:07.645Z,10.70
2018-08-30T09:17:13.156Z,10.00
2018-08-30T09:18:18.726Z,11.50
2018-08-30T09:19:24.196Z,11.00
2018-08-30T09:20:29.711Z,10.70
2018-08-30T09:21:35.221Z,12.00
2018-08-30T09:22:40.736Z,10.40
2018-08-30T09:23:46.250Z,12.30
2018-08-30T09:24:51.766Z,11.20
2018-08-30T09:25:57.286Z,8.90
2018-08-30T09:27:02.804Z,9.50
2018-08-30T09:28:08.317Z,9.70
2018-08-30T09:29:13.828Z,12.40
2018-08-30T09:30:19.346Z,10.30
2018-08-30T09:31:24.861Z,10.60
2018-08-30T09:32:30.380Z,10.10
2018-08-30T09:33:35.897Z,9.20
2018-08-30T09:34:41.421Z,8.80
2018-08-30T09:35:46.937Z,8.90
2018-08-30T09:36:52.446Z,10.70
2018-08-30T09:37:57.962Z,9.30
2018-08-30T09:39:03.476Z,8.30
2018-08-30T09:40:08.990Z,12.10
2018-08-30T09:41:14.515Z,10.10
2018-08-30T09:42:20.024Z,9.30
2018-08-30T09:43:25.542Z,11.00
2018-08-30T09:44:31.065Z,9.30
2018-08-30T09:45:36.603Z,12.20
2018-08-30T09:46:42.095Z,8.70
2018-08-30T09:47:47.605Z,9.80
2018-08-30T09:48:53.132Z,8.00
2018-08-30T09:49:58.645Z,9.00
2018-08-30T09:51:04.152Z,10.50
2018-08-30T09:52:09.667Z,11.20
2018-08-30T09:53:15.181Z,11.70
2018-08-30T09:54:20.700Z,10.50
2018-08-30T09:55:26.213Z,11.10
2018-08-30T09:56:31.741Z,13.90
2018-08-30T09:57:37.279Z,12.20
2018-08-30T09:58:42.761Z,9.90
2018-08-30T09:59:48.280Z,8.50
2018-08-30T10:00:53.813Z,9.10
2018-08-30T10:01:59.311Z,10.40
2018-08-30T10:03:04.826Z,8.50
2018-08-30T10:04:10.354Z,9.70
2018-08-30T10:05:15.891Z,9.20
2018-08-30T10:06:21.385Z,9.60
2018-08-30T10:07:26.893Z,10.10
2018-08-30T10:08:32.417Z,7.50
2018-08-30T10:09:37.922Z,9.60
2018-08-30T10:10:43.445Z,9.20
2018-08-30T10:11:48.963Z,7.10
2018-08-30T10:12:54.476Z,7.70
2018-08-30T10:13:59.992Z,10.40
2018-08-30T10:15:05.510Z,9.60
2018-08-30T10:16:11.027Z,8.30
2018-08-30T10:17:16.541Z,8.10
2018-08-30T10:18:22.053Z,7.50
2018-08-30T10:19:27.568Z,8.70
2018-08-30T10:20:33.088Z,10.10
2018-08-30T10:21:38.680Z,10.70
2018-08-30T10:22:44.120Z,8.40
2018-08-30T10:23:49.633Z,9.20
2018-08-30T10:24:55.145Z,8.80
2018-08-30T10:26:00.667Z,7.50
2018-08-30T10:27:06.184Z,11.70
2018-08-30T10:28:11.701Z,9.30
2018-08-30T10:29:17.216Z,9.30
2018-08-30T10:30:22.741Z,8.30
2018-08-30T10:31:28.279Z,8.00
2018-08-30T10:32:33.762Z,10.70
2018-08-30T10:33:39.279Z,8.80
2018-08-30T10:34:44.800Z,8.60
2018-08-30T10:35:50.311Z,9.50
2018-08-30T10:36:55.883Z,9.30
2018-08-30T10:38:01.344Z,8.90
2018-08-30T10:39:06.861Z,7.30
2018-08-30T10:40:12.383Z,8.70
2018-08-30T10:41:17.900Z,10.00
2018-08-30T10:42:23.411Z,6.40
2018-08-30T10:43:28.927Z,8.00
2018-08-30T10:44:34.453Z,8.10
2018-08-30T10:45:39.960Z,7.60
2018-08-30T10:46:45.479Z,6.20
2018-08-30T10:47:50.997Z,8.00
2018-08-30T10:48:56.513Z,7.30
2018-08-30T10:50:02.045Z,6.90
2018-08-30T10:51:07.548Z,6.90
2018-08-30T10:52:13.061Z,5.70
2018-08-30T10:53:18.579Z,7.10
2018-08-30T10:54:24.094Z,6.60
2018-08-30T10:55:29.616Z,8.00
2018-08-30T10:56:35.131Z,7.90
2018-08-30T10:57:40.647Z,6.90
2018-08-30T10:58:46.166Z,8.60
2018-08-30T10:59:51.683Z,7.70
2018-08-30T11:00:57.205Z,6.40
2018-08-30T11:02:02.744Z,7.00
2018-08-30T11:03:08.239Z,7.90
2018-08-30T11:04:13.786Z,8.10
2018-08-30T11:05:19.261Z,7.40
2018-08-30T11:06:24.784Z,7.00
2018-08-30T11:07:30.296Z,7.20
2018-08-30T11:08:35.816Z,9.50
2018-08-30T11:09:41.330Z,7.60
2018-08-30T11:10:46.857Z,7.70
2018-08-30T11:11:52.373Z,7.80
2018-08-30T11:12:57.915Z,8.50
2018-08-30T11:14:03.402Z,8.30
2018-08-30T11:15:08.926Z,6.30
2018-08-30T11:16:14.453Z,7.10
2018-08-30T11:17:19.951Z,6.10
2018-08-30T11:18:25.468Z,8.50
2018-08-30T11:19:31.007Z,6.50
2018-08-30T11:20:36.593Z,6.60
2018-08-30T11:21:42.030Z,7.60
2018-08-30T11:22:47.547Z,7.90
2018-08-30T11:23:53.057Z,6.50
2018-08-30T11:24:58.579Z,6.20
2018-08-30T11:26:04.092Z,6.50
2018-08-30T11:27:09.607Z,6.20
2018-08-30T11:28:15.133Z,8.30
2018-08-30T11:29:20.645Z,8.50
2018-08-30T11:30:26.162Z,6.50
2018-08-30T11:31:31.683Z,9.00
2018-08-30T11:32:37.194Z,8.00
2018-08-30T11:33:42.712Z,8.60
2018-08-30T11:34:48.233Z,6.60
2018-08-30T11:35:53.747Z,8.10
2018-08-30T11:36:59.263Z,7.70
2018-08-30T11:38:04.795Z,8.00
2018-08-30T11:39:10.304Z,7.50
2018-08-30T11:40:15.835Z,7.60
2018-08-30T11:41:21.393Z,8.50
2018-08-30T11:42:26.881Z,5.80
2018-08-30T11:43:32.374Z,7.80
2018-08-30T11:44:37.892Z,8.90
2018-08-30T11:45:43.403Z,8.80
2018-08-30T11:46:48.924Z,7.80
2018-08-30T11:47:54.439Z,9.40
2018-08-30T11:48:59.957Z,6.10
2018-08-30T11:50:05.468Z,7.10
2018-08-30T11:51:11.002Z,5.80
2018-08-30T11:52:16.546Z,5.90
2018-08-30T11:53:22.026Z,7.00
2018-08-30T11:54:27.544Z,6.90
2018-08-30T11:55:33.057Z,7.20
2018-08-30T11:56:38.572Z,6.30
2018-08-30T11:57:44.086Z,6.90
2018-08-30T11:58:49.602Z,7.00
2018-08-30T11:59:55.122Z,7.90
2018-08-30T12:01:00.651Z,8.40
2018-08-30T12:02:06.154Z,6.00
2018-08-30T12:03:11.673Z,6.80
2018-08-30T12:04:17.190Z,5.70
2018-08-30T12:05:22.706Z,6.40
2018-08-30T12:06:28.223Z,6.30
2018-08-30T12:07:33.745Z,8.70
2018-08-30T12:08:39.262Z,6.60
2018-08-30T12:09:44.778Z,7.20
2018-08-30T12:10:50.405Z,6.80
2018-08-30T12:11:55.816Z,6.10
2018-08-30T12:13:01.339Z,6.00
2018-08-30T12:14:06.848Z,6.60
2018-08-30T12:15:12.368Z,5.90
2018-08-30T12:16:17.882Z,5.30
2018-08-30T12:17:23.402Z,7.40
2018-08-30T12:18:28.921Z,8.00
2018-08-30T12:19:34.430Z,6.50
2018-08-30T12:20:40.127Z,4.50
2018-08-30T12:21:45.475Z,6.80
2018-08-30T12:22:50.984Z,5.90
2018-08-30T12:23:56.502Z,5.70
2018-08-30T12:25:02.022Z,6.70
2018-08-30T12:26:07.544Z,8.10
2018-08-30T12:27:13.064Z,7.30
2018-08-30T12:28:18.621Z,7.20
2018-08-30T12:29:24.104Z,6.30
2018-08-30T12:30:29.647Z,6.80
2018-08-30T12:31:35.171Z,4.60
2018-08-30T12:32:40.670Z,5.00
2018-08-30T12:33:46.239Z,10.00
2018-08-30T12:34:51.733Z,7.30
2018-08-30T12:35:57.382Z,7.90
2018-08-30T12:37:02.768Z,5.50
2018-08-30T12:38:08.280Z,6.10
2018-08-30T12:39:13.777Z,7.10
2018-08-30T12:40:19.391Z,6.10
2018-08-30T12:41:24.819Z,5.30
2018-08-30T12:42:30.327Z,7.70
2018-08-30T12:43:35.971Z,6.10
2018-08-30T12:44:41.479Z,5.30
2018-08-30T12:45:46.895Z,5.60
2018-08-30T12:46:52.384Z,6.50
2018-08-30T12:47:57.896Z,5.40
2018-08-30T12:49:03.420Z,5.10
2018-08-30T12:50:09.020Z,6.20
2018-08-30T12:51:14.716Z,6.70
2018-08-30T12:52:19.963Z,5.50
2018-08-30T12:53:25.485Z,5.50
2018-08-30T12:54:31.101Z,6.40
2018-08-30T12:55:36.672Z,7.30
2018-08-30T12:56:42.111Z,6.70
2018-08-30T12:57:47.635Z,6.20
2018-08-30T12:58:53.221Z,4.90
2018-08-30T12:59:58.783Z,4.90
2018-08-30T13:01:04.228Z,6.20
2018-08-30T13:02:09.792Z,6.80
2018-08-30T13:03:15.337Z,4.70
2018-08-30T13:04:20.840Z,6.60
2018-08-30T13:05:26.378Z,5.10
2018-08-30T13:06:32.033Z,4.50
2018-08-30T13:07:37.405Z,6.50
2018-08-30T13:08:43.089Z,5.40
2018-08-30T13:09:48.543Z,4.50
2018-08-30T13:10:54.156Z,4.20
2018-08-30T13:11:59.707Z,4.40
2018-08-30T13:13:05.100Z,5.50
2018-08-30T13:14:10.578Z,5.40
2018-08-30T13:15:16.256Z,4.70
2018-08-30T13:16:21.565Z,4.70
2018-08-30T13:17:27.173Z,5.80
2018-08-30T13:18:32.570Z,3.90
2018-08-30T13:19:38.331Z,4.40
2018-08-30T13:20:43.637Z,5.70
2018-08-30T13:21:49.184Z,7.10
2018-08-30T13:22:54.758Z,6.70
2018-08-30T13:24:00.185Z,5.60
2018-08-30T13:25:05.921Z,5.90
2018-08-30T13:26:11.240Z,7.30
2018-08-30T13:27:16.804Z,6.70
2018-08-30T13:28:22.208Z,7.10
2018-08-30T13:29:27.899Z,3.50
2018-08-30T13:30:33.343Z,6.70
2018-08-30T13:31:39.075Z,6.30
2018-08-30T13:32:44.581Z,6.80
2018-08-30T13:33:50.053Z,7.10
2018-08-30T13:34:55.665Z,5.30
2018-08-30T13:36:01.143Z,6.00
2018-08-30T13:37:06.826Z,6.10
2018-08-30T13:38:12.244Z,7.50
2018-08-30T13:39:17.867Z,5.20
2018-08-30T13:40:23.477Z,8.00
2018-08-30T13:41:28.714Z,6.60
2018-08-30T13:42:34.215Z,5.30
2018-08-30T13:43:39.728Z,7.80
2018-08-30T13:44:45.200Z,6.40
2018-08-30T13:45:50.861Z,6.30
2018-08-30T13:46:56.327Z,6.80
2018-08-30T13:48:01.955Z,5.80
2018-08-30T13:49:07.397Z,4.90
2018-08-30T13:50:12.998Z,5.50
2018-08-30T13:51:18.277Z,4.70
2018-08-30T13:52:23.953Z,5.40
2018-08-30T13:53:29.250Z,7.30
2018-08-30T13:54:34.969Z,4.70
2018-08-30T13:55:40.614Z,4.90
2018-08-30T13:56:46.040Z,6.60
2018-08-30T13:57:51.645Z,6.00
2018-08-30T13:58:57.197Z,5.00
2018-08-30T14:00:02.656Z,5.60
2018-08-30T14:01:08.402Z,6.50
2018-08-30T14:02:13.468Z,6.20
2018-08-30T14:03:18.930Z,5.30
2018-08-30T14:04:24.422Z,6.70
2018-08-30T14:05:29.976Z,7.90
2018-08-30T14:06:35.486Z,6.00
2018-08-30T14:07:40.951Z,6.80
2018-08-30T14:08:46.565Z,8.00
2018-08-30T14:09:52.069Z,5.80
2018-08-30T14:10:57.587Z,5.60
2018-08-30T14:12:03.074Z,8.00
2018-08-30T14:13:08.646Z,7.40